Time;durP1;ratioP1;P1;durP2;ratioP2;P2;SDS_P1;SDS_P2;PMS_P1;PMS_P2;Temp;Humidity;BMP_temperature;BMP_pressure;BME280_temperature;BME280_humidity;BME280_pressure;Samples;Min_cycle;Max_cycle;Signal;HPM_P1;HPM_P2
2022/12/02 10:37:07;;;;;;;8.20;5.05;;;;;;;20.03;40.92;101984.94;4992248;27;3905837;-46
2022/12/02 10:39:36;;;;;;;6.35;4.60;;;;;;;20.40;39.93;101981.41;5093003;28;20047;-46
2022/12/02 10:42:06;;;;;;;4.55;4.00;;;;;;;20.69;39.30;101976.53;5111051;28;20023;-48
2022/12/02 10:44:56;;;;;;;5.82;4.75;;;;;;;20.92;38.89;101974.06;5110730;28;20038;-46
2022/12/02 10:47:25;;;;;;;5.10;4.55;;;;;;;21.06;38.57;101964.22;5110289;28;20073;-47
2022/12/02 10:49:56;;;;;;;5.32;4.25;;;;;;;21.13;38.49;101950.56;5110202;28;20512;-46
2022/12/02 10:52:28;;;;;;;6.43;4.55;;;;;;;21.22;38.30;101961.41;5092320;28;20445;-49
2022/12/02 10:54:58;;;;;;;6.22;4.65;;;;;;;21.29;37.76;101957.31;5110709;28;20028;-50
2022/12/02 10:57:29;;;;;;;6.10;4.25;;;;;;;21.37;37.84;101961.09;5092379;28;20102;-46
2022/12/02 10:59:59;;;;;;;7.65;4.35;;;;;;;21.32;37.70;101933.97;5110545;28;20024;-45
2022/12/02 11:02:44;;;;;;;5.57;3.85;;;;;;;21.39;37.56;101951.63;5110458;28;20028;-45
2022/12/02 11:05:14;;;;;;;6.22;3.90;;;;;;;21.49;37.22;101949.38;5092546;28;20028;-48
2022/12/02 11:07:50;;;;;;;6.70;3.90;;;;;;;21.51;37.28;101950.34;5110221;28;20047;-47
2022/12/02 11:10:21;;;;;;;5.40;4.15;;;;;;;21.57;37.71;101944.47;5110786;28;20016;-47
2022/12/02 11:12:49;;;;;;;5.20;3.63;;;;;;;21.61;36.90;101944.66;5110296;28;20028;-54
2022/12/02 11:15:35;;;;;;;5.47;3.78;;;;;;;21.55;37.35;101933.94;5110185;28;20115;-55
2022/12/02 11:18:04;;;;;;;4.95;3.78;;;;;;;21.62;36.92;101941.22;5110109;28;20524;-53
2022/12/02 11:20:52;;;;;;;4.13;2.85;;;;;;;21.62;36.99;101940.31;5109888;28;20036;-55
2022/12/02 11:23:21;;;;;;;3.85;3.33;;;;;;;21.65;37.12;101943.06;5103417;28;20042;-52
2022/12/02 11:25:50;;;;;;;4.63;3.20;;;;;;;21.65;37.14;101933.53;5110097;28;20535;-52
2022/12/02 11:28:19;;;;;;;4.38;2.90;;;;;;;21.62;37.10;101936.00;5109752;28;20110;-51
2022/12/02 11:30:48;;;;;;;3.70;2.90;;;;;;;21.64;37.04;101930.81;5109787;28;20050;-55
2022/12/02 11:33:44;;;;;;;5.15;3.22;;;;;;;21.66;36.69;101931.78;5092129;28;20068;-54
2022/12/02 11:36:16;;;;;;;4.47;3.15;;;;;;;21.68;36.71;101917.94;5105354;28;20039;-56
2022/12/02 11:38:46;;;;;;;4.68;3.38;;;;;;;21.72;36.46;101920.66;5096530;28;20069;-53
2022/12/02 11:41:15;;;;;;;3.67;2.95;;;;;;;21.73;36.78;101915.53;5095979;28;20024;-55
2022/12/02 11:43:47;;;;;;;4.68;3.08;;;;;;;21.70;36.76;101903.22;5095951;28;20482;-52
2022/12/02 11:46:17;;;;;;;4.07;2.97;;;;;;;21.63;36.43;101897.72;5095750;28;20059;-52
2022/12/02 11:48:51;;;;;;;3.55;2.80;;;;;;;21.65;36.59;101906.50;5078347;28;20114;-51
2022/12/02 11:51:30;;;;;;;4.32;3.08;;;;;;;21.67;36.81;101910.06;5078350;28;20491;-54
2022/12/02 11:53:59;;;;;;;3.42;2.60;;;;;;;21.73;36.08;101899.84;5095934;28;20054;-53
2022/12/02 11:56:37;;;;;;;6.30;2.95;;;;;;;21.69;36.69;101897.97;5077982;28;20035;-50
2022/12/02 11:59:29;;;;;;;4.47;2.88;;;;;;;21.67;36.49;101899.63;5095132;28;20177;-58
2022/12/02 12:02:17;;;;;;;5.25;3.00;;;;;;;21.66;36.71;101897.84;5095670;28;20031;-54
2022/12/02 12:04:46;;;;;;;3.63;2.90;;;;;;;21.73;36.24;101892.03;5095746;28;20020;-57
2022/12/02 12:07:15;;;;;;;3.95;2.72;;;;;;;21.74;36.20;101890.28;5095898;28;20032;-56
2022/12/02 12:09:43;;;;;;;3.60;3.03;;;;;;;21.81;36.00;101881.84;5095106;28;20378;-59
2022/12/02 12:12:21;;;;;;;4.22;3.00;;;;;;;21.74;35.86;101872.00;5077345;28;20035;-58
2022/12/02 12:15:02;;;;;;;7.03;2.92;;;;;;;21.75;36.30;101876.41;5095907;28;20099;-59
2022/12/02 12:17:31;;;;;;;49.88;30.13;;;;;;;21.75;36.12;101876.41;5095215;28;20093;-53
2022/12/02 12:20:00;;;;;;;126.10;73.15;;;;;;;21.77;36.11;101878.22;5095460;28;20070;-51
2022/12/02 12:22:29;;;;;;;119.65;67.57;;;;;;;21.73;36.23;101865.91;5095086;28;20035;-58
2022/12/02 12:25:36;;;;;;;114.55;66.50;;;;;;;21.69;36.49;101867.50;5095394;28;20434;-47
2022/12/02 12:28:04;;;;;;;104.10;59.08;;;;;;;21.74;36.42;101862.47;5085739;28;20474;-51
2022/12/02 12:30:33;;;;;;;101.18;60.13;;;;;;;21.67;36.37;101848.28;5095301;28;20024;-50
2022/12/02 12:33:01;;;;;;;85.55;51.17;;;;;;;21.77;36.55;101854.72;5094896;28;20482;-59
2022/12/02 12:35:30;;;;;;;85.78;48.97;;;;;;;21.77;36.38;101854.72;5094680;28;20446;-53
2022/12/02 12:37:59;;;;;;;79.85;45.72;;;;;;;21.73;36.54;101854.56;5095154;28;20077;-59
2022/12/02 12:40:27;;;;;;;76.75;45.70;;;;;;;21.69;36.37;101850.94;5094608;28;20028;-60
2022/12/02 12:42:56;;;;;;;67.13;40.85;;;;;;;21.65;36.72;101844.72;5094704;28;20020;-59
2022/12/02 12:45:24;;;;;;;63.85;38.25;;;;;;;21.68;36.74;101852.66;5094466;28;20105;-55
2022/12/02 12:47:53;;;;;;;63.50;36.83;;;;;;;21.70;36.73;101852.72;5093871;28;20028;-52
2022/12/02 12:50:22;;;;;;;62.22;34.42;;;;;;;21.69;36.62;101840.50;5094788;28;20032;-57
2022/12/02 12:52:50;;;;;;;56.25;32.17;;;;;;;21.72;36.47;101834.50;5094390;28;20019;-59
2022/12/02 12:55:19;;;;;;;49.42;29.60;;;;;;;21.73;36.83;101831.06;5094404;28;20441;-59
2022/12/02 12:57:47;;;;;;;51.28;30.58;;;;;;;21.77;36.61;101827.72;5094484;28;20028;-59
2022/12/02 13:00:16;;;;;;;45.72;28.38;;;;;;;21.77;36.75;101825.97;5094293;28;20063;-50
2022/12/02 13:02:44;;;;;;;45.53;26.55;;;;;;;21.75;36.83;101821.56;5094136;28;20099;-60
2022/12/02 13:05:13;;;;;;;43.78;25.98;;;;;;;21.82;36.91;101820.94;5094422;28;20382;-51
2022/12/02 13:07:41;;;;;;;39.42;23.35;;;;;;;21.86;36.71;101814.97;5098945;28;20101;-51
2022/12/02 13:10:10;;;;;;;34.92;22.58;;;;;;;21.92;36.63;101823.03;5114964;28;20020;-50
2022/12/02 13:12:38;;;;;;;37.38;21.80;;;;;;;21.90;36.61;101818.59;5114834;28;20023;-49
2022/12/02 13:15:07;;;;;;;34.00;19.33;;;;;;;21.89;36.71;101815.09;5114682;28;20024;-53
2022/12/02 13:17:36;;;;;;;30.95;18.33;;;;;;;21.91;36.77;101817.78;5114672;28;20028;-46
2022/12/02 13:20:05;;;;;;;31.77;17.75;;;;;;;21.96;36.80;101810.97;5108007;28;20016;-53
2022/12/02 13:22:52;;;;;;;27.50;16.02;;;;;;;22.01;36.53;101806.81;5097583;28;20078;-46
2022/12/02 13:25:20;;;;;;;24.85;15.98;;;;;;;22.03;36.85;101805.13;5099559;28;20467;-56
2022/12/02 13:27:49;;;;;;;27.60;15.65;;;;;;;22.01;36.40;101793.72;5104735;28;20020;-52
2022/12/02 13:30:18;;;;;;;24.75;15.52;;;;;;;22.07;36.51;101801.78;5101904;28;20024;-54
2022/12/02 13:32:47;;;;;;;22.85;13.52;;;;;;;22.11;36.56;101798.44;5101728;28;20032;-53
2022/12/02 13:35:16;;;;;;;21.67;13.27;;;;;;;22.11;36.42;101790.59;5103809;28;20578;-47
2022/12/02 13:37:45;;;;;;;22.15;11.90;;;;;;;22.07;36.60;101782.59;5101769;28;20035;-51
2022/12/02 13:40:17;;;;;;;25.52;13.88;;;;;;;22.16;36.62;101790.78;5083747;28;20020;-51
2022/12/02 13:42:44;;;;;;;21.90;14.18;;;;;;;22.18;36.24;101794.28;5097651;28;20052;-56
2022/12/02 13:45:13;;;;;;;18.23;11.68;;;;;;;22.21;36.33;101786.56;5101447;28;20466;-51
2022/12/02 13:47:42;;;;;;;23.23;12.02;;;;;;;22.22;36.13;101785.72;5096890;28;20501;-48
2022/12/02 13:50:10;;;;;;;18.08;10.48;;;;;;;22.19;36.39;101787.34;5101106;28;20536;-48
2022/12/02 13:52:39;;;;;;;21.50;10.60;;;;;;;22.28;36.31;101775.50;5104176;28;20069;-47
2022/12/02 13:55:07;;;;;;;18.13;10.27;;;;;;;22.26;35.97;101782.38;5101935;28;20090;-47
2022/12/02 13:57:36;;;;;;;15.63;9.73;;;;;;;22.28;36.36;101771.97;5099538;28;20055;-48
2022/12/02 14:00:05;;;;;;;14.93;9.13;;;;;;;22.30;36.25;101775.53;5101291;28;20059;-46
2022/12/02 14:02:34;;;;;;;12.80;8.45;;;;;;;22.33;36.13;101772.16;5100345;28;20051;-48
2022/12/02 14:05:02;;;;;;;16.42;8.40;;;;;;;22.38;35.86;101771.44;5103266;28;20032;-49
2022/12/02 14:07:31;;;;;;;11.63;8.40;;;;;;;22.36;35.92;101764.38;5102063;28;20027;-48
2022/12/02 14:09:59;;;;;;;15.10;8.05;;;;;;;22.40;35.83;101764.56;5101747;28;20397;-48
2022/12/02 14:12:28;;;;;;;11.75;7.78;;;;;;;22.42;36.33;101759.41;5084935;28;20053;-50
2022/12/02 14:14:57;;;;;;;10.65;7.25;;;;;;;22.38;36.22;101747.03;5100437;28;20031;-49
2022/12/02 14:17:25;;;;;;;10.75;6.90;;;;;;;22.53;35.95;101758.00;5101658;28;20028;-47
2022/12/02 14:19:53;;;;;;;20.15;7.47;;;;;;;22.55;35.62;101751.09;5103036;28;20033;-49
2022/12/02 14:22:22;;;;;;;11.27;7.60;;;;;;;22.53;36.03;101739.69;5101392;28;20027;-46
2022/12/02 14:24:51;;;;;;;9.80;6.53;;;;;;;22.55;35.88;101753.72;5103944;28;20027;-51
2022/12/02 14:27:19;;;;;;;10.57;6.20;;;;;;;22.59;35.99;101745.13;5100792;28;20032;-46
2022/12/02 14:29:48;;;;;;;10.32;6.45;;;;;;;22.58;35.59;101748.59;5100695;28;20024;-47
2022/12/02 14:32:16;;;;;;;9.15;6.13;;;;;;;22.61;35.39;101742.53;5096955;28;20385;-46
2022/12/02 14:34:45;;;;;;;9.18;5.75;;;;;;;22.60;35.99;101749.53;5078370;28;20056;-46
2022/12/02 14:37:13;;;;;;;7.60;5.82;;;;;;;22.57;35.55;101746.81;5103486;28;20035;-46
2022/12/02 14:39:42;;;;;;;10.07;5.30;;;;;;;22.59;35.92;101733.75;5101069;28;20024;-48
2022/12/02 14:42:11;;;;;;;9.32;4.82;;;;;;;22.58;35.37;101732.88;5100711;28;20487;-50
2022/12/02 14:44:39;;;;;;;7.60;5.40;;;;;;;22.64;35.37;101741.78;5102498;28;20494;-49
2022/12/02 14:47:08;;;;;;;7.13;4.68;;;;;;;22.64;35.59;101733.94;5101797;28;20046;-54
2022/12/02 14:49:36;;;;;;;9.98;5.03;;;;;;;22.66;35.64;101734.88;5095988;28;20059;-50
2022/12/02 14:52:05;;;;;;;8.82;4.50;;;;;;;22.68;35.73;101741.91;5102250;28;20028;-56
2022/12/02 14:54:33;;;;;;;7.13;3.97;;;;;;;22.65;35.39;101739.19;5102282;28;20027;-54
2022/12/02 14:57:01;;;;;;;7.05;5.07;;;;;;;22.68;35.20;101741.91;5101339;28;20098;-51
2022/12/02 14:59:30;;;;;;;8.02;5.03;;;;;;;22.65;35.43;101743.56;5102863;28;20101;-51
2022/12/02 15:01:59;;;;;;;9.82;3.97;;;;;;;22.61;35.27;101738.22;5100957;28;20392;-50
2022/12/02 15:04:28;;;;;;;6.03;4.10;;;;;;;22.65;34.88;101739.19;5102994;28;20057;-50
2022/12/02 15:06:57;;;;;;;6.75;4.40;;;;;;;22.64;35.54;101747.88;5100703;28;20024;-50
2022/12/02 15:09:24;;;;;;;6.18;3.95;;;;;;;22.65;35.03;101735.72;5102633;28;20027;-50
2022/12/02 15:11:53;;;;;;;6.65;3.30;;;;;;;22.67;35.37;101744.50;5102092;28;20052;-47
2022/12/02 15:14:22;;;;;;;19.10;12.85;;;;;;;22.63;35.07;101737.38;5100774;28;20035;-55
2022/12/02 15:16:51;;;;;;;19.77;12.40;;;;;;;22.68;35.31;101741.00;5103718;28;20036;-57
2022/12/02 15:19:20;;;;;;;17.67;12.00;;;;;;;22.61;35.01;101730.38;5104212;28;20031;-56
2022/12/02 15:21:48;;;;;;;18.50;11.60;;;;;;;22.68;35.25;101743.63;5099464;28;20110;-49
2022/12/02 15:24:17;;;;;;;16.58;11.60;;;;;;;22.68;34.72;101738.38;5102824;28;20028;-52
2022/12/02 15:26:46;;;;;;;18.10;11.07;;;;;;;22.70;35.01;101739.31;5103730;28;20024;-55
2022/12/02 15:29:15;;;;;;;15.90;10.82;;;;;;;22.68;35.42;101739.28;5106671;28;20102;-56
2022/12/02 15:31:43;;;;;;;18.13;9.18;;;;;;;22.69;34.95;101742.78;5102877;28;20031;-55
2022/12/02 15:34:11;;;;;;;13.15;9.20;;;;;;;22.68;35.16;101739.28;5104710;28;20093;-55
2022/12/02 15:36:40;;;;;;;13.75;9.18;;;;;;;22.74;35.12;101735.97;5105163;28;20429;-50
2022/12/02 15:39:08;;;;;;;13.45;7.90;;;;;;;22.70;35.24;101741.94;5105343;28;20028;-47
2022/12/02 15:41:37;;;;;;;14.80;7.97;;;;;;;22.72;35.43;101746.41;5100406;28;20020;-52
2022/12/02 15:44:06;;;;;;;9.55;6.55;;;;;;;22.69;35.47;101738.47;5105805;28;20020;-52
2022/12/02 15:46:34;;;;;;;12.48;7.25;;;;;;;22.72;35.53;101745.50;5104005;28;20032;-55
2022/12/02 15:49:03;;;;;;;10.85;7.07;;;;;;;22.72;35.31;101738.56;5106444;28;20047;-54
2022/12/02 15:51:31;;;;;;;9.25;6.25;;;;;;;22.77;35.51;101746.53;5103659;28;20024;-53
2022/12/02 15:54:00;;;;;;;11.30;8.00;;;;;;;22.74;35.62;101751.66;5104237;28;20043;-54
2022/12/02 15:56:28;;;;;;;13.40;7.72;;;;;;;22.74;35.50;101741.19;5105980;28;20059;-51
2022/12/02 15:58:56;;;;;;;10.38;6.68;;;;;;;22.79;35.59;101747.47;5103707;28;20024;-48
2022/12/02 16:01:25;;;;;;;10.40;6.70;;;;;;;22.80;35.39;101745.72;5095171;28;20024;-54
2022/12/02 16:03:53;;;;;;;9.65;6.65;;;;;;;22.81;35.21;101751.03;5103711;28;20536;-54
2022/12/02 16:06:23;;;;;;;9.85;6.65;;;;;;;22.81;35.51;101751.03;5097896;28;20027;-57
2022/12/02 16:08:51;;;;;;;7.22;5.45;;;;;;;22.80;35.43;101745.72;5102754;28;20103;-57
2022/12/02 16:11:20;;;;;;;11.38;6.28;;;;;;;22.87;35.19;101750.31;5107215;28;20035;-49
2022/12/02 16:13:51;;;;;;;7.72;5.43;;;;;;;22.87;35.40;101743.34;5105805;28;20560;-54
2022/12/02 16:16:19;;;;;;;9.73;5.85;;;;;;;22.89;35.09;101759.09;5103009;28;20070;-55
2022/12/02 16:18:48;;;;;;;9.05;5.75;;;;;;;22.90;35.31;101751.28;5105511;28;20095;-56
2022/12/02 16:21:17;;;;;;;8.38;5.47;;;;;;;22.95;35.34;101758.41;5101979;28;20093;-55
2022/12/02 16:23:45;;;;;;;8.30;5.22;;;;;;;22.94;35.40;101759.25;5104141;28;20024;-56
2022/12/02 16:26:14;;;;;;;6.00;4.38;;;;;;;22.95;35.27;101766.25;5102460;28;20474;-51
2022/12/02 16:28:44;;;;;;;9.55;4.50;;;;;;;22.95;35.30;101766.25;5099725;28;20043;-55
2022/12/02 16:31:12;;;;;;;6.63;4.32;;;;;;;22.97;35.11;101759.34;5102134;28;20031;-56
2022/12/02 16:33:40;;;;;;;5.57;4.10;;;;;;;22.98;35.34;101767.22;5100464;28;20422;-53
2022/12/02 16:36:12;;;;;;;7.13;3.83;;;;;;;23.00;35.33;101772.53;5102999;28;20079;-55
2022/12/02 16:38:40;;;;;;;8.35;4.22;;;;;;;23.00;35.11;101773.38;5104415;28;20020;-58
2022/12/02 16:41:09;;;;;;;6.45;4.13;;;;;;;22.99;34.74;101776.84;5102014;28;20055;-58
2022/12/02 16:43:38;;;;;;;5.15;3.50;;;;;;;23.02;34.76;101781.28;5103182;28;20062;-52
2022/12/02 16:46:06;;;;;;;7.28;3.60;;;;;;;23.00;34.91;101785.59;5105200;28;20394;-58
2022/12/02 16:48:35;;;;;;;6.20;4.03;;;;;;;23.01;35.14;101779.50;5102566;28;20077;-48
2022/12/02 16:51:03;;;;;;;5.22;3.60;;;;;;;23.02;34.90;101786.50;5097415;28;20020;-50
2022/12/02 16:53:32;;;;;;;6.45;3.50;;;;;;;22.96;34.95;101776.75;5098553;28;20035;-52
2022/12/02 16:56:00;;;;;;;4.03;3.22;;;;;;;23.06;34.93;101778.81;5089682;28;20031;-51
2022/12/02 16:58:29;;;;;;;4.45;3.13;;;;;;;23.05;34.91;101779.66;5100141;28;20028;-55
2022/12/02 17:00:58;;;;;;;4.63;3.30;;;;;;;23.05;34.91;101776.13;5104275;28;20032;-55
2022/12/02 17:03:26;;;;;;;5.35;3.28;;;;;;;23.07;34.64;101784.94;5102936;28;20027;-55
2022/12/02 17:05:55;;;;;;;7.82;3.33;;;;;;;23.08;34.70;101780.59;5104036;28;20060;-54
2022/12/02 17:08:24;;;;;;;3.80;2.83;;;;;;;23.12;34.62;101791.19;5103167;28;20024;-58
2022/12/02 17:10:52;;;;;;;5.63;2.97;;;;;;;23.12;34.63;101785.06;5102874;28;20106;-53
2022/12/02 17:13:21;;;;;;;5.50;3.47;;;;;;;23.14;34.93;101786.91;5103712;28;20111;-55
2022/12/02 17:15:49;;;;;;;4.63;2.90;;;;;;;23.01;34.94;101769.94;5102720;28;20032;-49
2022/12/02 17:18:18;;;;;;;3.65;2.70;;;;;;;23.12;34.69;101785.97;5104123;28;20050;-51
2022/12/02 17:20:46;;;;;;;4.80;3.20;;;;;;;23.18;34.62;101780.88;5101545;28;20027;-53
2022/12/02 17:23:15;;;;;;;4.95;3.55;;;;;;;23.21;34.61;101785.38;5104716;28;20024;-49
2022/12/02 17:25:43;;;;;;;3.70;2.88;;;;;;;23.13;34.27;101784.22;5101572;28;20058;-51
2022/12/02 17:28:11;;;;;;;4.43;3.15;;;;;;;23.14;34.84;101784.28;5099060;28;20106;-56
2022/12/02 17:30:38;;;;;;;3.85;3.22;;;;;;;23.15;34.30;101769.44;5097120;28;20082;-54
2022/12/02 17:33:05;;;;;;;4.35;3.13;;;;;;;23.17;34.19;101775.63;5104674;28;20098;-54
2022/12/02 17:35:33;;;;;;;6.07;3.50;;;;;;;23.11;34.71;101775.44;5103746;28;20073;-51
2022/12/02 17:38:01;;;;;;;4.22;2.83;;;;;;;23.19;34.63;101781.78;5095509;28;20119;-55
2022/12/02 17:40:29;;;;;;;4.72;3.17;;;;;;;23.17;34.57;101775.63;5097193;28;20073;-51
2022/12/02 17:42:56;;;;;;;5.35;2.88;;;;;;;23.25;34.29;101776.75;5097124;28;20021;-55
2022/12/02 17:45:25;;;;;;;4.22;3.20;;;;;;;23.23;34.58;101780.16;5097820;28;20474;-53
2022/12/02 17:47:53;;;;;;;3.28;2.53;;;;;;;23.20;34.52;101781.84;5106933;28;20054;-52
2022/12/02 17:50:20;;;;;;;3.53;2.67;;;;;;;23.14;34.67;101767.66;5101057;28;20103;-58
2022/12/02 17:52:47;;;;;;;4.68;2.83;;;;;;;23.23;34.18;101783.69;5107609;28;20031;-54
2022/12/02 17:55:16;;;;;;;4.60;2.88;;;;;;;23.26;34.21;101764.56;5107236;28;20027;-55
2022/12/02 17:57:43;;;;;;;5.65;2.90;;;;;;;23.25;34.27;101757.53;5098756;28;20040;-57
2022/12/02 18:00:11;;;;;;;3.78;2.95;;;;;;;23.21;34.60;101757.44;5102567;28;20027;-50
2022/12/02 18:02:38;;;;;;;4.22;2.90;;;;;;;23.27;34.27;101761.09;5101355;28;20030;-54
2022/12/02 18:05:06;;;;;;;5.65;3.53;;;;;;;23.30;34.37;101756.81;5108660;28;20031;-47
2022/12/02 18:07:34;;;;;;;5.15;3.17;;;;;;;23.24;34.33;101750.53;5091574;28;20084;-48
2022/12/02 18:10:02;;;;;;;3.97;3.03;;;;;;;23.25;34.38;101741.84;5099209;28;20023;-48
2022/12/02 18:12:29;;;;;;;4.10;3.03;;;;;;;23.29;34.86;101749.81;5094071;28;20031;-48
2022/12/02 18:14:58;;;;;;;4.85;3.10;;;;;;;23.27;34.44;101745.41;5092529;28;20028;-47
2022/12/02 18:17:26;;;;;;;6.40;3.05;;;;;;;23.26;34.42;101749.72;5107845;28;20490;-50
2022/12/02 18:19:54;;;;;;;3.33;2.80;;;;;;;23.27;34.38;101750.63;5099075;28;20394;-51
2022/12/02 18:22:22;;;;;;;4.95;3.05;;;;;;;23.27;34.86;101742.78;5095129;28;20027;-52
2022/12/02 18:24:49;;;;;;;4.85;2.60;;;;;;;23.32;34.54;101746.41;5098531;28;20110;-53
2022/12/02 18:27:16;;;;;;;9.23;4.43;;;;;;;23.30;34.62;101743.75;5080383;28;20020;-49
2022/12/02 18:29:43;;;;;;;47.40;13.75;;;;;;;23.32;34.66;101751.66;5099644;28;20024;-49
2022/12/02 18:32:12;;;;;;;66.28;24.83;;;;;;;23.39;34.79;101740.50;5079424;28;20028;-52
2022/12/02 18:34:40;;;;;;;97.90;36.47;;;;;;;23.44;34.75;101743.22;5098520;28;20054;-48
2022/12/02 18:37:08;;;;;;;150.95;60.30;;;;;;;23.47;34.69;101735.47;5099104;28;20032;-49
2022/12/02 18:39:36;;;;;;;218.10;88.47;;;;;;;23.46;34.74;101728.44;5102093;28;20470;-50
2022/12/02 18:42:04;;;;;;;253.98;109.82;;;;;;;23.45;34.54;101734.53;5077568;28;20024;-52
2022/12/02 18:44:33;;;;;;;262.75;118.25;;;;;;;23.49;35.08;101732.06;5098657;28;20024;-49
2022/12/02 18:47:01;;;;;;;289.05;128.82;;;;;;;23.49;35.01;101721.59;5098751;28;20023;-52
2022/12/02 18:49:30;;;;;;;306.13;134.95;;;;;;;23.50;34.70;101718.09;5107635;28;20031;-52
2022/12/02 18:51:57;;;;;;;307.38;133.45;;;;;;;23.52;34.51;101708.56;5102641;28;20769;-50
2022/12/02 18:54:26;;;;;;;308.50;134.80;;;;;;;23.60;34.76;101714.00;5083732;28;20035;-53
2022/12/02 18:56:53;;;;;;;299.77;133.93;;;;;;;23.58;34.63;101715.69;5097610;28;20097;-49
2022/12/02 18:59:21;;;;;;;297.63;139.52;;;;;;;23.57;34.93;101723.50;5104588;28;20496;-51
2022/12/02 19:01:50;;;;;;;311.15;139.38;;;;;;;23.59;35.03;101712.22;5099737;28;20036;-55
2022/12/02 19:04:17;;;;;;;278.73;128.80;;;;;;;23.63;35.19;101721.94;5099042;28;20036;-53
2022/12/02 19:06:45;;;;;;;291.17;123.88;;;;;;;23.62;35.11;101711.44;5110479;28;20027;-51
2022/12/02 19:09:14;;;;;;;270.15;126.68;;;;;;;23.60;34.63;101707.88;5108060;28;20024;-50
2022/12/02 19:11:41;;;;;;;256.60;117.60;;;;;;;23.65;34.94;101711.53;5098168;28;20062;-49
2022/12/02 19:14:10;;;;;;;238.45;110.32;;;;;;;23.66;34.95;101718.53;5099504;28;20027;-52
2022/12/02 19:16:38;;;;;;;236.57;109.63;;;;;;;23.67;35.09;101717.66;5107156;28;20024;-48
2022/12/02 19:19:06;;;;;;;218.35;105.40;;;;;;;23.67;34.96;101709.78;5108879;28;20028;-50
2022/12/02 19:21:34;;;;;;;227.82;103.95;;;;;;;23.70;34.93;101719.50;5100558;28;20020;-51
2022/12/02 19:24:02;;;;;;;201.48;93.47;;;;;;;23.65;35.37;101707.16;5078651;28;20024;-48
2022/12/02 19:26:30;;;;;;;199.60;91.05;;;;;;;23.64;34.99;101709.75;5097981;28;20065;-47
2022/12/02 19:28:59;;;;;;;176.80;83.85;;;;;;;23.68;35.18;101711.56;5101146;28;20037;-47
2022/12/02 19:31:27;;;;;;;179.00;82.78;;;;;;;23.70;34.87;101704.66;5106078;28;20046;-47
2022/12/02 19:33:55;;;;;;;167.15;77.90;;;;;;;23.74;35.10;101706.50;5100538;28;20423;-47
2022/12/02 19:36:23;;;;;;;158.52;74.68;;;;;;;23.75;34.88;101695.19;5097598;28;20055;-47
2022/12/02 19:38:51;;;;;;;157.10;71.63;;;;;;;23.76;35.00;101691.72;5099735;28;20048;-48
2022/12/02 19:41:19;;;;;;;136.02;65.32;;;;;;;23.72;34.60;101692.47;5088833;28;20045;-49
2022/12/02 19:43:47;;;;;;;140.82;64.18;;;;;;;23.80;34.63;101695.28;5088342;28;20020;-50
2022/12/02 19:46:16;;;;;;;146.80;64.97;;;;;;;23.79;34.36;101693.50;5082066;28;20062;-47
2022/12/02 19:48:44;;;;;;;141.80;69.78;;;;;;;23.78;34.69;101697.88;5101689;28;20016;-48
2022/12/02 19:51:12;;;;;;;141.70;71.03;;;;;;;23.79;34.38;101704.00;5099992;28;20054;-47
2022/12/02 19:53:40;;;;;;;134.20;68.25;;;;;;;23.83;34.33;101696.25;5098923;28;20027;-52
2022/12/02 19:56:07;;;;;;;127.68;63.33;;;;;;;23.80;34.55;101704.06;5079519;28;20439;-48
2022/12/02 19:58:35;;;;;;;124.95;60.65;;;;;;;23.76;34.33;101699.56;5099255;28;20050;-47
2022/12/02 20:01:04;;;;;;;109.53;56.72;;;;;;;23.79;34.14;101697.03;5100317;28;20068;-47
2022/12/02 20:03:31;;;;;;;111.95;57.78;;;;;;;23.78;34.32;101690.03;5104976;28;20024;-47
2022/12/02 20:06:00;;;;;;;110.13;56.58;;;;;;;23.81;34.52;101697.97;5102043;28;20019;-53
2022/12/02 20:08:29;;;;;;;97.55;48.97;;;;;;;23.80;34.47;101685.72;5099292;28;20040;-48
2022/12/02 20:10:57;;;;;;;96.20;48.45;;;;;;;23.81;34.47;101683.97;5101075;28;20019;-46
2022/12/02 20:13:25;;;;;;;87.55;46.53;;;;;;;23.78;34.38;101686.50;5089449;28;20051;-47
2022/12/02 20:15:53;;;;;;;88.32;43.85;;;;;;;23.82;34.73;101680.50;5078997;28;20580;-47
2022/12/02 20:18:21;;;;;;;82.10;42.58;;;;;;;23.83;34.72;101679.66;5082521;28;20381;-51
2022/12/02 20:20:49;;;;;;;78.07;38.92;;;;;;;23.87;34.25;101681.50;5101394;28;20431;-46
2022/12/02 20:23:17;;;;;;;73.70;38.22;;;;;;;23.85;34.67;101685.81;5100701;28;20139;-47
2022/12/02 20:25:45;;;;;;;65.68;35.55;;;;;;;23.85;34.67;101680.59;5100313;28;20020;-47
2022/12/02 20:28:13;;;;;;;72.45;34.85;;;;;;;23.85;34.63;101682.31;5100262;28;20097;-47
2022/12/02 20:30:42;;;;;;;62.53;32.67;;;;;;;23.89;34.60;101684.16;5100340;28;20024;-46
2022/12/02 20:33:09;;;;;;;56.85;30.65;;;;;;;23.89;34.40;101679.81;5102423;28;20058;-46
2022/12/02 20:35:37;;;;;;;59.83;30.15;;;;;;;23.91;34.62;101679.84;5079578;28;20056;-47
2022/12/02 20:38:05;;;;;;;60.88;29.80;;;;;;;23.92;34.59;101676.38;5084762;28;20024;-47
2022/12/02 20:40:33;;;;;;;51.38;25.23;;;;;;;23.92;34.30;101682.50;5082062;28;20090;-49
2022/12/02 20:43:01;;;;;;;45.45;24.55;;;;;;;23.91;34.54;101683.34;5080880;28;20055;-46
2022/12/02 20:45:28;;;;;;;46.50;24.73;;;;;;;23.88;34.35;101685.00;5080570;28;20027;-47
2022/12/02 20:47:56;;;;;;;45.22;23.27;;;;;;;23.93;34.33;101689.50;5081042;28;20695;-47
2022/12/02 20:50:25;;;;;;;44.38;21.70;;;;;;;23.89;34.44;101689.41;5083725;28;20051;-48
2022/12/02 20:52:53;;;;;;;42.05;21.08;;;;;;;23.97;34.35;101695.75;5082526;28;20513;-46
2022/12/02 20:55:21;;;;;;;39.67;20.25;;;;;;;23.97;34.66;101695.75;5083014;28;20063;-45
2022/12/02 20:57:48;;;;;;;39.30;19.45;;;;;;;23.93;34.35;101696.50;5085140;28;20050;-47
2022/12/02 21:00:18;;;;;;;35.00;17.70;;;;;;;23.90;34.71;101693.78;5082906;28;20056;-47
2022/12/02 21:02:46;;;;;;;33.58;17.77;;;;;;;23.97;34.58;101693.13;5079585;28;20048;-46
2022/12/02 21:05:15;;;;;;;33.35;16.83;;;;;;;23.96;34.61;101687.00;5073989;28;20024;-47
2022/12/02 21:07:42;;;;;;;30.80;16.13;;;;;;;23.99;34.37;101677.44;5074054;28;20476;-49
2022/12/02 21:10:11;;;;;;;35.53;16.40;;;;;;;24.00;34.59;101682.72;5073233;28;20028;-47
2022/12/02 21:12:38;;;;;;;31.42;15.00;;;;;;;23.99;34.46;101680.97;5072576;28;20016;-47
2022/12/02 21:15:05;;;;;;;24.95;14.07;;;;;;;24.03;34.48;101687.16;5072262;28;20068;-47
2022/12/02 21:17:33;;;;;;;23.27;12.43;;;;;;;24.02;34.44;101670.53;5062079;28;20075;-47
2022/12/02 21:20:00;;;;;;;21.10;12.00;;;;;;;24.02;34.32;101675.78;5053820;28;20032;-48
2022/12/02 21:22:27;;;;;;;23.52;11.68;;;;;;;24.04;34.38;101666.22;5052562;28;20479;-47
2022/12/02 21:24:56;;;;;;;26.92;10.05;;;;;;;24.10;34.31;101663.75;5059677;28;20187;-47
2022/12/02 21:27:24;;;;;;;19.52;10.02;;;;;;;24.07;34.67;101657.56;5074127;28;20052;-49
2022/12/02 21:29:52;;;;;;;21.13;10.25;;;;;;;24.15;34.44;101663.84;5073679;28;20032;-49
2022/12/02 21:32:19;;;;;;;18.30;9.65;;;;;;;24.18;34.34;101653.44;5073570;28;20106;-51
2022/12/02 21:34:46;;;;;;;17.25;7.97;;;;;;;24.19;34.46;101655.22;5060383;28;20036;-47
2022/12/02 21:37:13;;;;;;;15.82;9.43;;;;;;;24.21;34.32;101661.38;5052983;28;20048;-51
2022/12/02 21:39:41;;;;;;;14.50;7.75;;;;;;;24.24;34.33;101653.56;5054072;28;20027;-47
2022/12/02 21:42:10;;;;;;;14.15;8.52;;;;;;;24.20;34.13;101641.25;5052251;28;20392;-48
2022/12/02 21:44:37;;;;;;;15.43;7.40;;;;;;;24.21;33.84;101655.22;5053494;28;20028;-50
2022/12/02 21:47:04;;;;;;;11.85;7.60;;;;;;;24.23;34.10;101656.16;5053503;28;20028;-53
2022/12/02 21:49:31;;;;;;;12.02;7.00;;;;;;;24.25;34.07;101650.09;5052006;28;20082;-48
2022/12/02 21:51:58;;;;;;;12.65;7.05;;;;;;;24.24;34.21;101650.94;5051492;28;20033;-49
2022/12/02 21:54:26;;;;;;;11.30;6.47;;;;;;;24.31;34.04;101653.72;5053212;28;20061;-50
2022/12/02 21:56:53;;;;;;;10.70;6.50;;;;;;;24.35;33.77;101648.56;5053336;28;20036;-50
2022/12/02 21:59:20;;;;;;;12.63;7.03;;;;;;;24.34;33.98;101644.16;5052031;28;20024;-53